createdAt,value
2022-12-13T00:00:09.192Z,12.49
2022-12-13T00:05:15.106Z,12.63
2022-12-13T00:10:18.280Z,12.31
2022-12-13T00:15:21.880Z,12.22
2022-12-13T00:20:27.171Z,11.93
2022-12-13T00:25:30.813Z,11.75
2022-12-13T00:30:34.492Z,11.74
2022-12-13T00:35:43.181Z,11.64
2022-12-13T00:40:46.819Z,11.50
2022-12-13T00:45:53.637Z,11.24
2022-12-13T00:50:58.906Z,11.02
2022-12-13T00:56:02.601Z,10.57
2022-12-13T01:01:08.471Z,10.13
2022-12-13T01:06:18.536Z,9.89
2022-12-13T01:11:22.474Z,9.73
2022-12-13T01:16:26.163Z,9.73
2022-12-13T01:21:32.520Z,9.55
2022-12-13T01:26:35.440Z,9.39
2022-12-13T01:31:39.032Z,9.07
2022-12-13T01:36:45.796Z,9.08
2022-12-13T01:41:51.177Z,8.95
2022-12-13T01:46:54.906Z,8.60
2022-12-13T01:52:06.463Z,8.35
2022-12-13T01:57:11.212Z,8.17
2022-12-13T02:02:15.851Z,8.20
2022-12-13T02:07:24.964Z,8.05
2022-12-13T02:12:30.723Z,8.17
2022-12-13T02:17:45.652Z,7.97
2022-12-13T02:23:14.089Z,7.83
2022-12-13T02:28:40.849Z,7.65
2022-12-13T02:33:53.243Z,7.64
2022-12-13T02:39:02.212Z,7.75
2022-12-13T02:44:22.489Z,7.88
2022-12-13T02:49:33.392Z,7.91
2022-12-13T02:54:38.331Z,7.87
2022-12-13T02:59:46.779Z,7.99
2022-12-13T03:05:05.178Z,8.00
2022-12-13T03:10:16.119Z,7.91
2022-12-13T03:15:26.834Z,7.86
2022-12-13T03:20:32.248Z,7.81
2022-12-13T03:25:35.997Z,7.47
2022-12-13T03:30:39.997Z,7.27
2022-12-13T03:35:46.049Z,7.28
2022-12-13T03:40:50.511Z,7.33
2022-12-13T03:45:54.673Z,7.32
2022-12-13T03:51:00.710Z,7.19
2022-12-13T03:56:06.409Z,7.13
2022-12-13T04:01:12.961Z,7.04
2022-12-13T04:06:21.749Z,7.07
2022-12-13T04:11:27.023Z,7.16
2022-12-13T04:16:30.665Z,7.18
2022-12-13T04:21:35.974Z,7.22
2022-12-13T04:26:39.588Z,7.21
2022-12-13T04:31:44.026Z,7.20
2022-12-13T04:36:49.303Z,7.19
2022-12-13T04:41:53.561Z,7.18
2022-12-13T04:47:01.121Z,7.10
2022-12-13T04:52:07.608Z,7.05
2022-12-13T04:57:12.543Z,7.03
2022-12-13T05:02:23.956Z,7.01
2022-12-13T05:07:29.780Z,6.95
2022-12-13T05:12:33.464Z,6.89
2022-12-13T05:17:37.050Z,6.89
2022-12-13T05:22:42.329Z,6.88
2022-12-13T05:27:45.929Z,6.79
2022-12-13T05:32:49.531Z,6.74
2022-12-13T05:37:55.478Z,6.66
2022-12-13T05:43:01.497Z,6.58
2022-12-13T05:48:05.740Z,6.57
2022-12-13T05:53:12.657Z,6.52
2022-12-13T05:58:16.404Z,6.46
2022-12-13T06:03:27.133Z,6.38
2022-12-13T06:08:33.145Z,6.46
2022-12-13T06:13:42.895Z,6.28
2022-12-13T06:18:47.077Z,6.20
2022-12-13T06:23:56.568Z,6.21
2022-12-13T06:29:00.218Z,6.16
2022-12-13T06:34:14.465Z,5.97
2022-12-13T06:39:20.705Z,6.02
2022-12-13T06:44:24.339Z,6.06
2022-12-13T06:49:32.462Z,5.97
2022-12-13T06:54:37.930Z,5.87
2022-12-13T06:59:41.940Z,5.81
2022-12-13T07:04:45.783Z,5.82
2022-12-13T07:09:51.027Z,5.78
2022-12-13T07:14:55.394Z,5.69
2022-12-13T07:20:01.254Z,5.62
2022-12-13T07:25:07.417Z,5.52
2022-12-13T07:30:31.896Z,5.47
2022-12-13T07:35:37.021Z,5.54
2022-12-13T07:40:43.063Z,5.45
2022-12-13T07:45:46.693Z,5.42
2022-12-13T07:50:54.744Z,5.47
2022-12-13T07:56:02.643Z,5.44
2022-12-13T08:01:07.657Z,5.33
2022-12-13T08:06:12.689Z,5.32
2022-12-13T08:11:18.204Z,5.26
2022-12-13T08:16:26.126Z,5.19
2022-12-13T08:27:02.925Z,5.01
2022-12-13T08:32:08.229Z,5.06
2022-12-13T08:37:11.878Z,4.99
2022-12-13T08:42:20.336Z,5.00
2022-12-13T08:47:26.647Z,4.96
2022-12-13T08:52:30.636Z,4.90
2022-12-13T08:57:36.923Z,4.87
2022-12-13T09:02:40.581Z,4.77
2022-12-13T09:07:44.252Z,4.80
2022-12-13T09:12:49.558Z,4.80
2022-12-13T09:17:53.341Z,4.73
2022-12-13T09:23:01.217Z,4.68
2022-12-13T09:28:07.513Z,4.66
2022-12-13T09:33:29.061Z,4.63
2022-12-13T09:38:35.832Z,4.59
2022-12-13T09:43:44.057Z,4.57
2022-12-13T09:48:48.657Z,4.52
2022-12-13T09:53:55.105Z,4.59
2022-12-13T09:59:00.411Z,4.52
2022-12-13T10:04:04.052Z,4.53
2022-12-13T10:09:10.957Z,4.59
2022-12-13T10:14:23.596Z,4.52
2022-12-13T10:19:31.614Z,4.44
2022-12-13T10:24:51.693Z,4.44
2022-12-13T10:30:03.789Z,4.28
2022-12-13T10:35:22.160Z,4.28
2022-12-13T10:40:32.643Z,4.26
2022-12-13T10:45:40.309Z,4.30
2022-12-13T10:50:44.026Z,4.24
2022-12-13T10:55:55.547Z,4.25
2022-12-13T11:01:10.388Z,4.24
2022-12-13T11:06:15.911Z,4.11
2022-12-13T11:11:27.316Z,4.04
2022-12-13T11:16:35.833Z,4.01
2022-12-13T11:21:40.595Z,4.06
2022-12-13T11:26:53.948Z,4.03
2022-12-13T11:32:08.694Z,3.90
2022-12-13T11:37:23.698Z,3.90
2022-12-13T11:42:31.472Z,3.83
2022-12-13T11:47:40.232Z,3.75
2022-12-13T11:52:50.263Z,3.75
2022-12-13T11:57:59.926Z,3.67
2022-12-13T12:03:19.094Z,3.65
2022-12-13T12:08:31.994Z,3.74
2022-12-13T12:13:51.582Z,3.66
2022-12-13T12:19:01.170Z,3.64
2022-12-13T12:24:20.958Z,3.67
2022-12-13T12:29:53.015Z,3.62
2022-12-13T12:35:11.872Z,3.61
2022-12-13T12:41:15.140Z,3.67
2022-12-13T12:46:23.789Z,3.62
2022-12-13T12:51:37.578Z,3.53
2022-12-13T12:56:52.796Z,3.38
2022-12-13T13:02:05.179Z,3.45
2022-12-13T13:07:23.171Z,3.57
2022-12-13T13:12:30.301Z,3.64
2022-12-13T13:17:47.721Z,3.55
2022-12-13T13:23:25.228Z,3.30
2022-12-13T13:28:22.174Z,3.29
2022-12-13T13:33:45.296Z,3.32
2022-12-13T13:38:54.885Z,3.22
2022-12-13T13:44:02.205Z,3.25
2022-12-13T13:49:12.287Z,3.27
2022-12-13T13:54:46.934Z,3.15
2022-12-13T14:00:14.011Z,3.13
2022-12-13T14:05:28.499Z,3.17
2022-12-13T14:10:50.775Z,3.15
2022-12-13T14:16:26.074Z,3.14
2022-12-13T14:21:56.073Z,3.09
2022-12-13T14:27:13.443Z,3.04
2022-12-13T14:32:26.381Z,2.97
2022-12-13T14:37:32.550Z,2.98
2022-12-13T14:42:38.016Z,3.01
2022-12-13T14:47:42.340Z,2.98
2022-12-13T14:52:47.489Z,3.04
2022-12-13T14:57:56.309Z,2.99
2022-12-13T15:03:02.163Z,2.90
2022-12-13T15:08:11.460Z,2.91
2022-12-13T15:13:29.030Z,2.85
2022-12-13T15:18:33.388Z,2.83
2022-12-13T15:23:49.109Z,2.85
2022-12-13T15:28:56.864Z,3.10
2022-12-13T15:34:28.569Z,3.09
2022-12-13T15:39:38.752Z,3.17
2022-12-13T15:44:48.246Z,3.28
2022-12-13T15:49:54.109Z,3.49
2022-12-13T15:54:59.440Z,3.54
2022-12-13T16:00:30.652Z,3.73
2022-12-13T16:05:37.507Z,3.85
2022-12-13T16:10:46.207Z,3.93
2022-12-13T16:15:52.794Z,3.93
2022-12-13T16:21:04.640Z,4.25
2022-12-13T16:26:11.482Z,4.61
2022-12-13T16:31:18.751Z,4.88
2022-12-13T16:36:22.357Z,5.55
2022-12-13T16:41:26.153Z,5.95
2022-12-13T16:47:14.155Z,6.05
2022-12-13T16:51:55.481Z,6.22
2022-12-13T16:56:59.089Z,6.52
2022-12-13T17:02:04.416Z,6.86
2022-12-13T17:07:09.410Z,7.18
2022-12-13T17:12:13.055Z,7.22
2022-12-13T17:17:19.315Z,7.33
2022-12-13T17:22:23.031Z,7.79
2022-12-13T17:27:26.749Z,7.99
2022-12-13T17:32:32.057Z,8.31
2022-12-13T17:37:35.842Z,8.49
2022-12-13T17:42:39.474Z,8.60
2022-12-13T17:47:45.876Z,8.67
2022-12-13T17:52:48.709Z,8.78
2022-12-13T17:57:52.316Z,8.85
2022-12-13T18:02:59.292Z,9.02
2022-12-13T18:08:02.995Z,9.17
2022-12-13T18:13:06.614Z,9.47
2022-12-13T18:18:12.842Z,9.77
2022-12-13T18:23:16.697Z,9.99
2022-12-13T18:28:20.279Z,10.06
2022-12-13T18:33:26.130Z,10.17
2022-12-13T18:38:36.202Z,10.36
2022-12-13T18:43:40.655Z,10.50
2022-12-13T18:48:46.778Z,10.49
2022-12-13T18:53:51.243Z,10.68
2022-12-13T18:58:55.328Z,10.92
2022-12-13T19:04:00.622Z,11.01
2022-12-13T19:09:04.293Z,11.06
2022-12-13T19:14:07.874Z,11.10
2022-12-13T19:19:13.115Z,11.08
2022-12-13T19:24:16.712Z,11.12
2022-12-13T19:29:20.385Z,11.21
2022-12-13T19:34:25.671Z,11.89
2022-12-13T19:39:29.257Z,12.28
2022-12-13T19:44:32.855Z,12.37
2022-12-13T19:49:38.093Z,12.10
2022-12-13T19:54:41.864Z,11.89
2022-12-13T19:59:45.487Z,11.80
2022-12-13T20:04:50.814Z,11.89
2022-12-13T20:09:54.454Z,11.82
2022-12-13T20:14:59.151Z,12.06
2022-12-13T20:20:05.045Z,12.11
2022-12-13T20:25:09.594Z,12.04
2022-12-13T20:30:13.933Z,12.09
2022-12-13T20:35:19.629Z,12.26
2022-12-13T20:40:26.288Z,12.43
2022-12-13T20:45:30.166Z,12.62
2022-12-13T20:50:35.466Z,12.62
2022-12-13T20:55:39.087Z,12.82
2022-12-13T21:00:42.780Z,12.66
2022-12-13T21:05:48.260Z,12.88
2022-12-13T21:10:51.855Z,12.93
2022-12-13T21:15:55.656Z,12.89
2022-12-13T21:21:00.927Z,12.99
2022-12-13T21:26:05.428Z,13.14
2022-12-13T21:31:10.791Z,13.19
2022-12-13T21:36:18.905Z,13.27
2022-12-13T21:41:22.808Z,13.26
2022-12-13T21:46:41.405Z,13.58
2022-12-13T21:51:53.241Z,13.59
2022-12-13T21:56:56.813Z,13.45
2022-12-13T22:02:02.322Z,12.92
2022-12-13T22:07:08.609Z,12.59
2022-12-13T22:12:19.881Z,12.42
2022-12-13T22:17:31.052Z,12.43
2022-12-13T22:22:39.385Z,12.37
2022-12-13T22:27:43.032Z,12.52
2022-12-13T22:32:46.616Z,12.40
2022-12-13T22:37:51.958Z,12.37
2022-12-13T22:42:55.541Z,12.23
2022-12-13T22:47:59.162Z,12.22
2022-12-13T22:53:04.479Z,12.16
2022-12-13T22:58:08.073Z,11.97
2022-12-13T23:03:11.690Z,11.98
2022-12-13T23:08:16.962Z,12.06
2022-12-13T23:13:20.599Z,11.94
2022-12-13T23:18:24.599Z,11.92
2022-12-13T23:23:30.729Z,11.73
2022-12-13T23:28:34.374Z,11.65
2022-12-13T23:33:38.787Z,11.38
2022-12-13T23:38:44.512Z,11.18
2022-12-13T23:43:48.693Z,11.10
2022-12-13T23:48:52.543Z,10.99
2022-12-13T23:53:58.669Z,10.90
2022-12-13T23:59:02.267Z,10.67
